Portada
METAR-TAF:

METAR-TAF

Aeropuertos :

Cazaux, Francia

latitud: 44-32N, longitud: 001-08W, altitud: 25 m

Observación

El informe se hizo hace 11 minutos, a las 13:30 UTC
Viento 7 kt del noreste, variando entre norte y este-noreste
Temperatura 11°C
Humedad 54%
Presión 1036 hPa
Visibilidad 10 km o más
sin nubes por debajo de 1500 m y sin presencia de cumulonimbus.

METAR: LFBC 031330Z AUTO 04007KT 350V070 CAVOK 11/02 Q1036 NOSIG

Hora: 14:41 (13:41 UTC)

Pronóstico

El informe se hizo hace 5 horas y 41 minutos, a las 08:00 UTC
Pronóstico válido del 03 a las 09 UTC al 04 a las 09 UTC
Viento 5 kt del norte-noreste
Visibilidad 10 km o más
sin nubes por debajo de 1500 m y sin presencia de cumulonimbus.
Probabilidad 30% :
Temporalmente
del 04 a las 00 UTC al 04 a las 08 UTC
Visibilidad: 4000 m
neblina

TAF: LFBC 030800Z 0309/0409 02005KT CAVOK PROB30 TEMPO 0400/0408 4000 BR

Observaciones y pronósticos meteorológicos de más de 4000 aeropuertos (mensajes METAR y TAF).

Los puntos amarillos y rojos representan las estaciones disponibles.

Ponga el ratón en el punto deseado para ver el nombre de la estación.

Haga clic para ver las observaciones y los pronósticos meteorológicos.

Para cambiar el mapa : haga clic en los botones verdes con una cruz de color negro para hacer un zoom, en el botón verde con un guión para alejar o en las flechas verdes para mapas adyacentes.


METAR-TAF: